createdAt,value
2023-04-28T00:00:30.646Z,8.83
2023-04-28T00:02:58.455Z,20.50
2023-04-28T00:05:26.784Z,12.00
2023-04-28T00:07:55.897Z,10.57
2023-04-28T00:10:23.560Z,10.37
2023-04-28T00:12:51.168Z,10.75
2023-04-28T00:15:18.790Z,10.55
2023-04-28T00:17:46.436Z,10.80
2023-04-28T00:20:14.130Z,14.73
2023-04-28T00:22:41.733Z,11.33
2023-04-28T00:25:10.915Z,10.80
2023-04-28T00:27:38.487Z,10.33
2023-04-28T00:30:07.632Z,11.93
2023-04-28T00:32:35.266Z,15.77
2023-04-28T00:35:02.878Z,10.98
2023-04-28T00:37:30.516Z,12.73
2023-04-28T00:39:58.264Z,11.68
2023-04-28T00:42:27.187Z,13.15
2023-04-28T00:44:54.735Z,14.57
2023-04-28T00:47:22.558Z,15.70
2023-04-28T00:49:53.014Z,13.20
2023-04-28T00:52:20.656Z,13.35
2023-04-28T00:54:48.628Z,15.10
2023-04-28T00:57:16.347Z,11.90
2023-04-28T00:59:45.240Z,15.60
2023-04-28T01:02:17.355Z,13.20
2023-04-28T01:04:46.234Z,12.32
2023-04-28T01:07:15.695Z,12.95
2023-04-28T01:09:43.976Z,14.30
2023-04-28T01:12:22.337Z,12.43
2023-04-28T01:14:53.062Z,14.77
2023-04-28T01:17:21.297Z,11.57
2023-04-28T01:19:49.513Z,12.75
2023-04-28T01:22:17.073Z,14.73
2023-04-28T01:24:46.601Z,13.95
2023-04-28T01:27:15.396Z,14.30
2023-04-28T01:29:43.021Z,15.68
2023-04-28T01:32:10.857Z,12.80
2023-04-28T01:34:38.530Z,14.77
2023-04-28T01:37:07.781Z,13.88
2023-04-28T01:39:37.849Z,14.60
2023-04-28T01:42:07.066Z,16.73
2023-04-28T01:44:34.991Z,12.23
2023-04-28T01:47:02.549Z,16.33
2023-04-28T01:49:30.199Z,14.45
2023-04-28T01:51:57.732Z,16.15
2023-04-28T01:54:25.934Z,14.93
2023-04-28T01:56:53.877Z,16.73
2023-04-28T01:59:28.833Z,16.45
2023-04-28T02:01:56.511Z,17.20
2023-04-28T02:04:24.387Z,15.88
2023-04-28T02:06:52.155Z,14.50
2023-04-28T02:09:19.771Z,17.63
2023-04-28T02:11:47.345Z,18.40
2023-04-28T02:14:15.136Z,14.18
2023-04-28T02:16:44.262Z,16.42
2023-04-28T02:19:12.947Z,18.58
2023-04-28T02:21:40.527Z,15.68
2023-04-28T02:24:09.068Z,16.77
2023-04-28T02:26:36.747Z,18.27
2023-04-28T02:29:05.084Z,21.55
2023-04-28T02:31:33.553Z,20.25
2023-04-28T02:34:02.668Z,16.40
2023-04-28T02:36:30.257Z,17.52
2023-04-28T02:38:57.998Z,18.92
2023-04-28T02:41:26.384Z,20.60
2023-04-28T02:43:53.997Z,20.30
2023-04-28T02:46:21.719Z,18.58
2023-04-28T02:48:49.283Z,18.15
2023-04-28T02:51:18.248Z,19.88
2023-04-28T02:53:46.556Z,20.30
2023-04-28T02:56:14.292Z,21.55
2023-04-28T02:58:41.973Z,19.02
2023-04-28T03:01:09.596Z,22.98
2023-04-28T03:03:37.505Z,18.40
2023-04-28T03:06:05.940Z,17.60
2023-04-28T03:08:34.910Z,19.17
2023-04-28T03:11:02.565Z,20.58
2023-04-28T03:13:30.455Z,19.67
2023-04-28T03:15:58.602Z,16.52
2023-04-28T03:18:26.320Z,16.98
2023-04-28T03:20:54.662Z,24.40
2023-04-28T03:23:22.284Z,20.30
2023-04-28T03:25:51.298Z,21.05
2023-04-28T03:28:18.923Z,24.85
2023-04-28T03:30:46.571Z,21.15
2023-04-28T03:33:14.207Z,22.27
2023-04-28T03:35:41.932Z,18.25
2023-04-28T03:38:09.545Z,18.20
2023-04-28T03:40:37.835Z,17.48
2023-04-28T03:43:12.724Z,18.08
2023-04-28T03:45:53.354Z,18.40
2023-04-28T03:48:21.159Z,15.32
2023-04-28T03:50:48.944Z,15.55
2023-04-28T03:53:17.227Z,20.95
2023-04-28T03:55:45.477Z,17.60
2023-04-28T03:58:14.629Z,14.07
2023-04-28T04:00:42.258Z,14.30
2023-04-28T04:03:10.295Z,12.57
2023-04-28T04:05:38.318Z,12.88
2023-04-28T04:08:06.457Z,11.52
2023-04-28T04:10:34.229Z,10.73
2023-04-28T04:13:01.846Z,11.52
2023-04-28T04:15:31.142Z,13.32
2023-04-28T04:17:59.379Z,14.02
2023-04-28T04:20:31.199Z,22.08
2023-04-28T04:22:58.818Z,15.43
2023-04-28T04:25:26.423Z,15.20
2023-04-28T04:27:55.001Z,15.25
2023-04-28T04:30:22.796Z,13.77
2023-04-28T04:32:51.871Z,13.73
2023-04-28T04:35:19.464Z,16.20
2023-04-28T04:37:47.269Z,13.68
2023-04-28T04:40:14.919Z,11.30
2023-04-28T04:42:49.131Z,12.05
2023-04-28T04:45:19.736Z,15.80
2023-04-28T04:47:48.328Z,11.37
2023-04-28T04:50:17.630Z,14.55
2023-04-28T04:52:46.282Z,11.45
2023-04-28T04:55:13.912Z,15.35
2023-04-28T04:57:42.897Z,15.82
2023-04-28T05:00:19.543Z,14.27
2023-04-28T05:02:47.870Z,13.93
2023-04-28T05:05:22.112Z,12.25
2023-04-28T05:08:03.627Z,14.20
2023-04-28T05:10:31.330Z,13.30
2023-04-28T05:13:00.247Z,17.42
2023-04-28T05:15:29.279Z,19.10
2023-04-28T05:18:29.433Z,12.13
2023-04-28T05:20:58.558Z,13.10
2023-04-28T05:23:26.183Z,13.43
2023-04-28T05:25:53.986Z,15.27
2023-04-28T05:28:22.172Z,14.63
2023-04-28T05:30:51.792Z,14.82
2023-04-28T05:33:19.393Z,17.93
2023-04-28T05:35:48.612Z,18.15
2023-04-28T05:38:17.558Z,14.10
2023-04-28T05:40:46.161Z,20.23
2023-04-28T05:43:14.153Z,12.82
2023-04-28T05:45:42.520Z,14.90
2023-04-28T05:48:10.450Z,14.50
2023-04-28T05:50:39.276Z,15.73
2023-04-28T05:53:07.439Z,10.83
2023-04-28T05:55:37.201Z,16.38
2023-04-28T05:58:05.430Z,15.45
2023-04-28T06:00:34.205Z,11.88
2023-04-28T06:03:02.406Z,13.30
2023-04-28T06:05:31.191Z,12.20
2023-04-28T06:07:59.001Z,14.70
2023-04-28T06:10:27.155Z,14.20
2023-04-28T06:12:56.336Z,12.97
2023-04-28T06:15:23.965Z,11.20
2023-04-28T06:17:51.673Z,14.37
2023-04-28T06:20:20.516Z,13.40
2023-04-28T06:22:48.169Z,15.27
2023-04-28T06:25:16.055Z,12.43
2023-04-28T06:27:50.326Z,13.77
2023-04-28T06:30:23.199Z,11.68
2023-04-28T06:32:51.627Z,11.37
2023-04-28T06:35:19.381Z,11.73
2023-04-28T06:37:46.972Z,10.97
2023-04-28T06:40:15.979Z,13.87
2023-04-28T06:42:49.405Z,14.13
2023-04-28T06:45:26.337Z,10.17
2023-04-28T06:47:55.683Z,13.40
2023-04-28T06:50:24.006Z,15.03
2023-04-28T06:52:51.668Z,15.03
2023-04-28T06:55:19.437Z,12.00
2023-04-28T06:57:47.118Z,15.73
2023-04-28T07:00:15.847Z,10.10
2023-04-28T07:02:44.938Z,10.97
2023-04-28T07:05:14.133Z,9.47
2023-04-28T07:07:43.624Z,11.80
2023-04-28T07:10:11.811Z,8.77
2023-04-28T07:12:39.459Z,8.90
2023-04-28T07:15:10.102Z,7.90
2023-04-28T07:17:38.137Z,10.83
2023-04-28T07:20:08.429Z,14.57
2023-04-28T07:22:36.123Z,9.53
2023-04-28T07:25:04.683Z,11.10
2023-04-28T07:27:32.385Z,9.83
2023-04-28T07:30:03.042Z,11.77
2023-04-28T07:32:34.135Z,8.47
2023-04-28T07:35:01.792Z,11.10
2023-04-28T07:37:31.855Z,8.17
2023-04-28T07:40:00.548Z,13.07
2023-04-28T07:42:28.322Z,8.90
2023-04-28T07:44:57.662Z,10.00
2023-04-28T07:47:25.493Z,9.03
2023-04-28T07:49:53.105Z,9.00
2023-04-28T07:52:20.820Z,9.90
2023-04-28T07:54:49.796Z,10.03
2023-04-28T07:57:17.399Z,11.80
2023-04-28T07:59:45.000Z,7.57
2023-04-28T08:02:14.966Z,15.27
2023-04-28T08:04:42.901Z,8.87
2023-04-28T08:07:10.685Z,7.80
2023-04-28T08:09:38.352Z,10.60
2023-04-28T08:12:07.493Z,9.63
2023-04-28T08:14:35.732Z,9.80
2023-04-28T08:17:03.368Z,10.40
2023-04-28T08:19:31.190Z,10.13
2023-04-28T08:22:00.102Z,7.73
2023-04-28T08:24:30.195Z,10.10
2023-04-28T08:26:57.829Z,13.20
2023-04-28T08:29:26.999Z,7.27
2023-04-28T08:31:54.750Z,11.73
2023-04-28T08:34:22.622Z,7.83
2023-04-28T08:36:50.841Z,11.67
2023-04-28T08:39:19.611Z,9.00
2023-04-28T08:41:47.382Z,9.37
2023-04-28T08:44:15.306Z,9.33
2023-04-28T08:46:45.772Z,12.27
2023-04-28T08:49:16.630Z,13.07
2023-04-28T08:51:47.656Z,8.80
2023-04-28T08:54:26.185Z,16.77
2023-04-28T08:56:58.016Z,10.77
2023-04-28T08:59:25.697Z,12.13
2023-04-28T09:01:55.039Z,12.57
2023-04-28T09:04:23.216Z,19.43
2023-04-28T09:06:51.129Z,10.77
2023-04-28T09:09:22.844Z,10.60
2023-04-28T09:11:55.437Z,14.53
2023-04-28T09:14:23.581Z,16.50
2023-04-28T09:16:51.810Z,12.40
2023-04-28T09:19:21.390Z,10.03
2023-04-28T09:21:50.506Z,8.50
2023-04-28T09:24:29.241Z,10.70
2023-04-28T09:26:56.976Z,7.97
2023-04-28T09:29:25.137Z,9.77
2023-04-28T09:31:53.153Z,11.53
2023-04-28T09:34:22.727Z,8.63
2023-04-28T09:36:50.578Z,8.33
2023-04-28T09:39:30.748Z,8.80
2023-04-28T09:42:03.206Z,8.20
2023-04-28T09:44:30.843Z,9.10
2023-04-28T09:46:58.663Z,11.83
2023-04-28T09:49:27.847Z,9.00
2023-04-28T09:51:55.510Z,8.93
2023-04-28T09:54:24.616Z,11.87
2023-04-28T09:56:53.197Z,9.00
2023-04-28T09:59:21.505Z,10.60
2023-04-28T10:01:50.760Z,13.03
2023-04-28T10:04:18.727Z,9.57
2023-04-28T10:06:48.223Z,11.43
2023-04-28T10:09:17.522Z,13.10
2023-04-28T10:11:46.060Z,10.83
2023-04-28T10:14:14.474Z,9.30
2023-04-28T10:16:43.578Z,10.87
2023-04-28T10:19:11.956Z,11.40
2023-04-28T10:21:49.371Z,15.37
2023-04-28T10:24:25.637Z,13.30
2023-04-28T10:27:09.419Z,13.47
2023-04-28T10:29:37.581Z,11.93
2023-04-28T10:32:33.262Z,12.87
2023-04-28T10:35:36.248Z,10.73
2023-04-28T10:38:05.082Z,10.60
2023-04-28T10:40:34.843Z,14.23
2023-04-28T10:43:02.900Z,9.40
2023-04-28T10:46:10.463Z,14.17
2023-04-28T10:48:59.067Z,12.93
2023-04-28T10:51:31.887Z,13.67
2023-04-28T10:54:19.239Z,11.47
2023-04-28T10:57:19.942Z,10.17
2023-04-28T10:59:47.901Z,9.93
2023-04-28T11:02:44.763Z,10.17
2023-04-28T11:05:19.004Z,8.70
2023-04-28T11:08:30.438Z,9.97
2023-04-28T11:11:21.625Z,11.50
2023-04-28T11:13:51.357Z,14.77
2023-04-28T11:16:21.746Z,17.30
2023-04-28T11:18:59.182Z,13.27
2023-04-28T11:21:29.332Z,12.73
2023-04-28T11:23:58.597Z,14.07
2023-04-28T11:26:26.646Z,16.40
2023-04-28T11:28:57.306Z,14.20
2023-04-28T11:31:26.982Z,14.90
2023-04-28T11:33:59.080Z,16.97
2023-04-28T11:36:29.012Z,14.00
2023-04-28T11:38:57.301Z,13.40
2023-04-28T11:41:26.653Z,11.43
2023-04-28T11:43:55.777Z,12.10
2023-04-28T11:46:25.051Z,12.40
2023-04-28T11:49:02.397Z,11.50
2023-04-28T11:51:38.025Z,12.60
2023-04-28T11:54:07.724Z,13.50
2023-04-28T11:56:39.481Z,13.43
2023-04-28T11:59:10.609Z,15.80
2023-04-28T12:01:46.605Z,13.70
2023-04-28T12:04:15.170Z,13.73
2023-04-28T12:06:42.918Z,12.83
2023-04-28T12:09:17.920Z,14.00
2023-04-28T12:11:59.228Z,15.13
2023-04-28T12:14:28.331Z,15.10
2023-04-28T12:16:56.963Z,13.10
2023-04-28T12:19:24.673Z,12.10
2023-04-28T12:22:03.330Z,15.23
2023-04-28T12:24:31.398Z,13.33
2023-04-28T12:27:22.458Z,13.13
2023-04-28T12:29:51.809Z,12.40
2023-04-28T12:32:20.200Z,10.90
2023-04-28T12:34:48.165Z,13.17
2023-04-28T12:37:15.736Z,10.60
2023-04-28T12:39:44.012Z,10.73
2023-04-28T12:42:12.136Z,10.83
2023-04-28T12:44:40.803Z,11.87
2023-04-28T12:47:11.693Z,11.83
2023-04-28T12:49:39.747Z,14.77
2023-04-28T12:52:07.794Z,18.10
2023-04-28T12:54:35.686Z,16.13
2023-04-28T12:57:04.004Z,15.27
2023-04-28T12:59:32.659Z,18.27
2023-04-28T13:02:00.605Z,19.40
2023-04-28T13:04:29.994Z,16.83
2023-04-28T13:06:58.879Z,16.60
2023-04-28T13:09:26.991Z,16.27
2023-04-28T13:11:54.605Z,15.77
2023-04-28T13:14:22.839Z,15.73
2023-04-28T13:16:51.750Z,15.70
2023-04-28T13:19:19.528Z,13.77
2023-04-28T13:21:48.537Z,13.13
2023-04-28T13:24:16.410Z,14.70
2023-04-28T13:26:45.098Z,13.60
2023-04-28T13:29:12.738Z,12.63
2023-04-28T13:31:40.496Z,12.10
2023-04-28T13:34:09.578Z,13.40
2023-04-28T13:36:37.219Z,14.53
2023-04-28T13:39:06.506Z,15.10
2023-04-28T13:41:34.094Z,14.63
2023-04-28T13:44:01.669Z,16.57
2023-04-28T13:46:29.350Z,19.20
2023-04-28T13:48:57.205Z,17.50
2023-04-28T13:51:24.873Z,17.47
2023-04-28T13:53:52.483Z,17.20
2023-04-28T13:56:21.503Z,16.10
2023-04-28T13:58:49.105Z,16.17
2023-04-28T14:01:16.930Z,15.30
2023-04-28T14:03:45.375Z,18.03
2023-04-28T14:06:13.108Z,14.93
2023-04-28T14:08:40.963Z,17.13
2023-04-28T14:11:09.404Z,15.80
2023-04-28T14:13:38.560Z,15.33
2023-04-28T14:16:07.155Z,16.17
2023-04-28T14:18:34.967Z,15.33
2023-04-28T14:21:03.938Z,15.30
2023-04-28T14:23:31.665Z,15.00
2023-04-28T14:25:59.311Z,16.20
2023-04-28T14:28:26.933Z,13.70
2023-04-28T14:30:56.092Z,14.00
2023-04-28T14:33:24.277Z,12.67
2023-04-28T14:35:52.152Z,12.90
2023-04-28T14:38:19.914Z,11.67
2023-04-28T14:40:47.561Z,11.30
2023-04-28T14:43:15.152Z,11.50
2023-04-28T14:45:42.786Z,10.87
2023-04-28T14:48:13.316Z,10.07
2023-04-28T14:50:41.590Z,8.77
2023-04-28T14:53:09.248Z,9.33
2023-04-28T14:55:36.898Z,16.20
2023-04-28T14:58:04.486Z,8.43
2023-04-28T15:00:32.506Z,8.27
2023-04-28T15:03:00.352Z,8.23
2023-04-28T15:05:29.463Z,8.10
2023-04-28T15:07:57.063Z,8.40
2023-04-28T15:10:24.746Z,8.57
2023-04-28T15:12:52.276Z,8.27
2023-04-28T15:15:19.807Z,7.67
2023-04-28T15:17:47.462Z,6.57
2023-04-28T15:20:15.230Z,8.60
2023-04-28T15:22:44.497Z,7.40
2023-04-28T15:25:12.058Z,6.07
2023-04-28T15:27:40.193Z,5.37
2023-04-28T15:30:09.488Z,5.20
2023-04-28T15:32:37.241Z,6.63
2023-04-28T15:35:05.394Z,6.30
2023-04-28T15:37:47.434Z,5.80
2023-04-28T15:40:16.696Z,4.67
2023-04-28T15:42:48.860Z,4.67
2023-04-28T15:45:18.312Z,3.80
2023-04-28T15:47:48.164Z,4.63
2023-04-28T15:50:18.809Z,5.63
2023-04-28T15:52:50.029Z,5.13
2023-04-28T15:55:19.830Z,6.00
2023-04-28T15:57:48.085Z,7.93
2023-04-28T16:00:16.804Z,9.57
2023-04-28T16:02:45.412Z,12.10
2023-04-28T16:05:13.986Z,11.57
2023-04-28T16:07:41.714Z,11.20
2023-04-28T16:10:12.727Z,13.47
2023-04-28T16:12:41.714Z,11.97
2023-04-28T16:15:11.481Z,10.13
2023-04-28T16:17:40.277Z,9.23
2023-04-28T16:20:09.840Z,10.13
2023-04-28T16:22:38.597Z,7.40
2023-04-28T16:25:07.234Z,8.70
2023-04-28T16:27:37.070Z,9.23
2023-04-28T16:30:07.065Z,7.07
2023-04-28T16:32:36.460Z,6.30
2023-04-28T16:35:06.266Z,6.03
2023-04-28T16:37:36.216Z,6.00
2023-04-28T16:40:04.483Z,5.00
2023-04-28T16:42:32.227Z,4.70
2023-04-28T16:45:01.229Z,5.30
2023-04-28T16:47:30.988Z,5.07
2023-04-28T16:49:58.708Z,5.30
2023-04-28T16:52:27.310Z,5.37
2023-04-28T16:54:54.921Z,4.60
2023-04-28T16:57:22.557Z,6.03
2023-04-28T16:59:51.011Z,5.77
2023-04-28T17:02:20.182Z,4.70
2023-04-28T17:04:48.072Z,5.10
2023-04-28T17:07:15.715Z,7.00
2023-04-28T17:09:43.297Z,5.30
2023-04-28T17:12:11.121Z,5.23
2023-04-28T17:14:38.965Z,5.13
2023-04-28T17:17:06.581Z,5.67
2023-04-28T17:19:35.627Z,5.57
2023-04-28T17:22:04.102Z,6.93
2023-04-28T17:24:31.789Z,6.50
2023-04-28T17:26:59.442Z,9.73
2023-04-28T17:29:27.701Z,7.13
2023-04-28T17:31:55.542Z,6.60
2023-04-28T17:34:23.850Z,8.63
2023-04-28T17:36:52.878Z,8.50
2023-04-28T17:39:20.555Z,10.77
2023-04-28T17:41:48.344Z,8.20
2023-04-28T17:44:16.096Z,8.63
2023-04-28T17:46:43.781Z,7.70
2023-04-28T17:49:11.542Z,8.53
2023-04-28T17:51:39.173Z,8.90
2023-04-28T17:54:09.606Z,8.97
2023-04-28T17:56:38.791Z,8.70
2023-04-28T17:59:08.206Z,10.70
2023-04-28T18:01:36.206Z,9.60
2023-04-28T18:04:04.022Z,11.60
2023-04-28T18:06:31.774Z,10.60
2023-04-28T18:08:59.362Z,10.50
2023-04-28T18:11:28.319Z,11.80
2023-04-28T18:13:58.536Z,11.97
2023-04-28T18:16:26.658Z,12.07
2023-04-28T18:18:54.331Z,12.30
2023-04-28T18:21:22.016Z,11.90
2023-04-28T18:23:49.688Z,12.53
2023-04-28T18:26:17.292Z,12.70
2023-04-28T18:28:48.778Z,12.97
2023-04-28T18:31:17.267Z,16.87
2023-04-28T18:33:45.061Z,14.83
2023-04-28T18:36:12.940Z,15.03
2023-04-28T18:38:40.601Z,16.40
2023-04-28T18:41:15.628Z,16.10
2023-04-28T18:43:44.002Z,16.67
2023-04-28T18:46:13.620Z,15.10
2023-04-28T18:48:42.005Z,13.90
2023-04-28T18:51:09.922Z,14.40
2023-04-28T18:53:37.790Z,14.10
2023-04-28T18:56:05.621Z,14.47
2023-04-28T18:58:33.252Z,12.07
2023-04-28T19:01:01.102Z,13.10
2023-04-28T19:03:31.428Z,14.80
2023-04-28T19:05:59.353Z,12.63
2023-04-28T19:08:26.967Z,12.20
2023-04-28T19:10:54.547Z,12.53
2023-04-28T19:13:22.745Z,12.03
2023-04-28T19:15:53.458Z,10.73
2023-04-28T19:18:21.182Z,10.80
2023-04-28T19:20:52.156Z,10.40
2023-04-28T19:23:19.807Z,13.70
2023-04-28T19:25:48.228Z,13.40
2023-04-28T19:28:15.880Z,12.30
2023-04-28T19:30:43.558Z,14.60
2023-04-28T19:33:11.284Z,16.10
2023-04-28T19:35:38.951Z,14.63
2023-04-28T19:38:08.083Z,13.50
2023-04-28T19:40:35.752Z,13.77
2023-04-28T19:43:03.946Z,12.73
2023-04-28T19:45:31.682Z,14.30
2023-04-28T19:47:59.326Z,11.80
2023-04-28T19:50:26.996Z,15.27
2023-04-28T19:52:54.603Z,13.97
2023-04-28T19:55:24.126Z,13.33
2023-04-28T19:57:52.593Z,15.00
2023-04-28T20:00:21.572Z,15.67
2023-04-28T20:02:49.781Z,14.13
2023-04-28T20:05:17.578Z,13.83
2023-04-28T20:07:45.223Z,13.47
2023-04-28T20:10:13.064Z,13.40
2023-04-28T20:12:42.700Z,13.37
2023-04-28T20:15:10.755Z,14.63
2023-04-28T20:17:38.400Z,14.27
2023-04-28T20:20:07.053Z,12.27
2023-04-28T20:22:35.332Z,12.30
2023-04-28T20:25:05.837Z,12.67
2023-04-28T20:27:34.408Z,12.40
2023-04-28T20:30:04.200Z,12.03
2023-04-28T20:32:31.973Z,11.63
2023-04-28T20:34:59.693Z,13.40
2023-04-28T20:37:27.509Z,11.97
2023-04-28T20:39:55.082Z,12.97
2023-04-28T20:42:23.220Z,12.43
2023-04-28T20:44:51.830Z,11.27
2023-04-28T20:47:20.798Z,16.10
2023-04-28T20:49:48.470Z,12.73
2023-04-28T20:52:16.176Z,15.03
2023-04-28T20:54:43.806Z,18.10
2023-04-28T20:57:11.507Z,17.03
2023-04-28T20:59:39.167Z,17.20
2023-04-28T21:02:06.855Z,19.33
2023-04-28T21:04:35.971Z,16.53
2023-04-28T21:07:04.098Z,21.57
2023-04-28T21:09:31.763Z,19.30
2023-04-28T21:11:59.396Z,15.93
2023-04-28T21:14:27.087Z,18.53
2023-04-28T21:16:54.846Z,24.70
2023-04-28T21:19:22.543Z,24.00
2023-04-28T21:21:51.621Z,28.37
2023-04-28T21:24:19.292Z,27.93
2023-04-28T21:26:47.509Z,30.00
2023-04-28T21:29:15.381Z,32.93
2023-04-28T21:31:43.041Z,34.93
2023-04-28T21:34:10.680Z,36.67
2023-04-28T21:36:38.310Z,32.97
2023-04-28T21:39:07.628Z,32.70
2023-04-28T21:41:35.243Z,34.73
2023-04-28T21:44:03.112Z,38.83
2023-04-28T21:46:30.940Z,29.27
2023-04-28T21:48:58.562Z,30.10
2023-04-28T21:51:26.218Z,37.40
2023-04-28T21:53:53.859Z,26.30
2023-04-28T21:56:22.819Z,28.40
2023-04-28T21:58:50.435Z,34.00
2023-04-28T22:01:18.316Z,28.30
2023-04-28T22:03:46.437Z,25.07
2023-04-28T22:06:14.549Z,30.43
2023-04-28T22:08:42.161Z,26.40
2023-04-28T22:11:10.000Z,25.03
2023-04-28T22:13:39.135Z,25.67
2023-04-28T22:16:07.017Z,22.40
2023-04-28T22:18:34.810Z,23.27
2023-04-28T22:21:02.400Z,24.10
2023-04-28T22:23:30.012Z,26.90
2023-04-28T22:25:59.255Z,28.30
2023-04-28T22:28:27.321Z,29.63
2023-04-28T22:30:56.429Z,29.13
2023-04-28T22:33:24.121Z,34.33
2023-04-28T22:35:51.765Z,25.27
2023-04-28T22:38:19.377Z,26.03
2023-04-28T22:40:46.988Z,28.43
2023-04-28T22:43:14.632Z,20.97
2023-04-28T22:45:45.469Z,20.00
2023-04-28T22:48:14.554Z,21.80
2023-04-28T22:50:42.210Z,26.87
2023-04-28T22:53:09.971Z,27.97
2023-04-28T22:55:37.566Z,31.67
2023-04-28T22:58:05.316Z,38.67
2023-04-28T23:00:33.734Z,28.67
2023-04-28T23:03:01.452Z,36.57
2023-04-28T23:05:30.491Z,33.67
2023-04-28T23:07:58.133Z,38.13
2023-04-28T23:10:26.071Z,49.30
2023-04-28T23:12:53.674Z,40.10
2023-04-28T23:15:21.292Z,37.50
2023-04-28T23:17:48.963Z,32.03
2023-04-28T23:20:16.646Z,30.80
2023-04-28T23:22:45.553Z,30.30
2023-04-28T23:25:13.180Z,43.80
2023-04-28T23:27:40.776Z,36.37
2023-04-28T23:30:09.937Z,37.27
2023-04-28T23:32:38.410Z,44.33
2023-04-28T23:35:06.738Z,36.67
2023-04-28T23:37:34.376Z,38.00
2023-04-28T23:40:03.888Z,33.63
2023-04-28T23:42:31.605Z,41.73
2023-04-28T23:45:01.363Z,38.80
2023-04-28T23:47:29.426Z,52.50
2023-04-28T23:49:57.118Z,49.83
2023-04-28T23:52:24.715Z,57.87
2023-04-28T23:54:52.341Z,49.20
2023-04-28T23:57:21.308Z,52.43
2023-04-28T23:59:49.073Z,64.30
